Roche, United Kingdom
Current Conditions -  °F | °C
As of 12:20 PM on Sunday 23 Nov 2014 (Local Time) from EGHQ Reporting Station
Scattered Clouds Scattered Clouds  
Wind Chill: 43°   Ceiling: Unl
Heat Index: 48°   Visibility: 6mi
Dew Point: 41°   Wind: 12mph
Humidity: 76%   Direction: 360°N
Pressure: 30.09"   Gusts: NA
Location:  50.41°N, 4.83°W
Report Text: EGHQ 231220Z 36010KT 9999 SCT024 09/05 Q1019
Loading
Personal Weather Stations






























Interactive Weather Map New forecast layout! Learn more

10-Day Weather Forecast

Advertisements
Track Severe Weather on mobile